Bloomville, South Carolina
Current Conditions -  °F | °C
As of 11:15 AM on Monday 22 Dec 2014 (Local Time) from KSMS Reporting Station
Haze Haze  
Wind Chill: 41°   Ceiling: 600
Heat Index: 45°   Visibility: 6mi
Dew Point: 43°   Wind: 6mph
Humidity: 93%   Direction: NA
Pressure: 30.09"   Gusts: NA
Location:  33.6434°N, 80.1966°W
Report Text: KSMS 221615Z AUTO VRB05KT 6SM BR OVC006 07/06 A3009 RMK AO2
Loading
Personal Weather Stations






























Interactive Weather Map New forecast layout! Learn more

10-Day Weather Forecast

Advertisements
Track Severe Weather on mobile